Terminal Aerodrome Forecast
Issued by NWS Quad Cities IA IL

Home | Current Version | Previous Version | Graphics & Text | Print | Product List | Glossary On
Versions: 1 2 3 4 5 6 7 8 9 10 11 12 13 14 15 16 17 18 19 20 21 22 23 24 25 26
991
FTUS43 KDVN 162338
TAFMLI
TAF
KMLI 162338Z 1700/1724 18007KT P6SM FEW050 BKN060 BKN080
      TEMPO 1700/1703 3SM SHRA BKN025 OVC040
     FM170500 22008KT P6SM SKC
     FM171400 26013G21KT P6SM OVC015
     FM172000 28011G18KT P6SM SCT030=

USA.gov is the U.S. government's official web portal to all federal, state and local government web resources and services.